Time;durP1;ratioP1;P1;durP2;ratioP2;P2;SDS_P1;SDS_P2;PMS_P1;PMS_P2;Temp;Humidity;BMP_temperature;BMP_pressure;BME280_temperature;BME280_humidity;BME280_pressure;Samples;Min_cycle;Max_cycle;Signal;HPM_P1;HPM_P2
2021/12/22 00:00:42;;;;;;;34.58;24.75;;;;;;;;;;6208050;23;20021;-81
2021/12/22 00:03:09;;;;;;;31.13;23.85;;;;;;;;;;6207901;23;20244;-81
2021/12/22 00:05:43;;;;;;;32.38;23.90;;;;;;;;;;6208401;23;20019;-81
2021/12/22 00:08:10;;;;;;;31.98;22.50;;;;;;;;;;6208386;23;20020;-81
2021/12/22 00:10:36;;;;;;;32.47;22.75;;;;;;;;;;6208384;23;20019;-81
2021/12/22 00:13:02;;;;;;;32.38;23.35;;;;;;;;;;6207882;23;20446;-81
2021/12/22 00:15:29;;;;;;;32.80;23.40;;;;;;;;;;6208028;23;20064;-81
2021/12/22 00:17:56;;;;;;;34.88;23.10;;;;;;;;;;6207499;23;20354;-81
2021/12/22 00:20:22;;;;;;;32.00;22.38;;;;;;;;;;6183089;23;20381;-81
2021/12/22 00:22:48;;;;;;;31.63;22.73;;;;;;;;;;6208037;23;20016;-81
2021/12/22 00:25:15;;;;;;;31.38;21.73;;;;;;;;;;6207995;23;20024;-81
2021/12/22 00:27:42;;;;;;;35.78;23.17;;;;;;;;;;6207902;23;20319;-81
2021/12/22 00:30:09;;;;;;;32.85;22.52;;;;;;;;;;6207831;23;20013;-81
2021/12/22 00:32:37;;;;;;;30.15;20.92;;;;;;;;;;6207876;23;20094;-81
2021/12/22 00:35:04;;;;;;;31.70;22.48;;;;;;;;;;6183163;23;20017;-81
2021/12/22 00:37:31;;;;;;;30.05;22.33;;;;;;;;;;6207599;23;20009;-80
2021/12/22 00:39:58;;;;;;;30.90;22.65;;;;;;;;;;6208318;23;20025;-81
2021/12/22 00:42:24;;;;;;;32.65;22.73;;;;;;;;;;6207722;23;20021;-81
2021/12/22 00:44:53;;;;;;;30.60;23.20;;;;;;;;;;6208164;23;20072;-80
2021/12/22 00:47:25;;;;;;;34.13;23.40;;;;;;;;;;6207831;23;20020;-81
2021/12/22 00:49:58;;;;;;;31.50;22.08;;;;;;;;;;6183540;23;20013;-81
2021/12/22 00:52:24;;;;;;;32.95;22.02;;;;;;;;;;6207761;23;20087;-81
2021/12/22 00:54:50;;;;;;;33.15;23.02;;;;;;;;;;6208252;23;20389;-81
2021/12/22 00:57:17;;;;;;;33.20;22.13;;;;;;;;;;6208157;23;20446;-81
2021/12/22 00:59:44;;;;;;;30.95;20.25;;;;;;;;;;6207990;23;20024;-81
2021/12/22 01:02:11;;;;;;;29.98;21.70;;;;;;;;;;6207786;23;20013;-81
2021/12/22 01:04:37;;;;;;;33.25;23.15;;;;;;;;;;6208379;23;20024;-81
2021/12/22 01:07:05;;;;;;;30.25;20.67;;;;;;;;;;6207717;23;20096;-81
2021/12/22 01:09:31;;;;;;;28.67;20.65;;;;;;;;;;6207939;23;20016;-81
2021/12/22 01:11:58;;;;;;;33.42;23.25;;;;;;;;;;6207690;23;20013;-80
2021/12/22 01:14:24;;;;;;;32.85;21.58;;;;;;;;;;6208758;23;20321;-81
2021/12/22 01:16:53;;;;;;;30.77;22.05;;;;;;;;;;6209449;23;20320;-80
2021/12/22 01:19:28;;;;;;;28.65;21.27;;;;;;;;;;6209978;23;20047;-80
2021/12/22 01:22:06;;;;;;;33.03;22.27;;;;;;;;;;6211647;23;20076;-80
2021/12/22 01:24:34;;;;;;;29.88;21.88;;;;;;;;;;6209582;23;20117;-80
2021/12/22 01:27:09;;;;;;;32.30;22.90;;;;;;;;;;6209523;23;20048;-80
2021/12/22 01:29:39;;;;;;;31.25;22.73;;;;;;;;;;6210055;23;20023;-80
2021/12/22 01:32:08;;;;;;;28.88;21.13;;;;;;;;;;6208918;23;20485;-80
2021/12/22 01:34:34;;;;;;;28.23;20.92;;;;;;;;;;6209414;23;20512;-81
2021/12/22 01:37:01;;;;;;;31.60;19.70;;;;;;;;;;6209093;23;20012;-81
2021/12/22 01:39:27;;;;;;;28.73;21.80;;;;;;;;;;6209629;23;20382;-81
2021/12/22 01:41:54;;;;;;;30.95;20.77;;;;;;;;;;6209690;23;20070;-81
2021/12/22 01:44:30;;;;;;;29.73;21.17;;;;;;;;;;6184273;23;20012;-81
2021/12/22 01:49:49;;;;;;;29.02;20.70;;;;;;;;;;6209139;23;20051;-80
2021/12/22 01:52:15;;;;;;;29.90;20.83;;;;;;;;;;6209376;23;20016;-80
2021/12/22 01:55:04;;;;;;;27.92;20.58;;;;;;;;;;6209274;23;20009;-80
2021/12/22 01:57:31;;;;;;;31.48;20.85;;;;;;;;;;6209367;23;20327;-80
2021/12/22 01:59:59;;;;;;;25.58;19.50;;;;;;;;;;6209249;23;20458;-81
2021/12/22 02:02:25;;;;;;;29.60;19.27;;;;;;;;;;6209223;23;20012;-80
2021/12/22 02:04:51;;;;;;;30.15;21.27;;;;;;;;;;6209244;23;20434;-80
2021/12/22 02:07:18;;;;;;;32.17;21.33;;;;;;;;;;6209058;23;20017;-80
2021/12/22 02:12:14;;;;;;;31.05;20.35;;;;;;;;;;6210755;23;20027;-80
2021/12/22 02:14:41;;;;;;;31.55;21.35;;;;;;;;;;6209006;23;20052;-80
2021/12/22 02:17:09;;;;;;;28.92;20.98;;;;;;;;;;6209708;23;20393;-80
2021/12/22 02:19:39;;;;;;;27.30;20.42;;;;;;;;;;6184389;23;20401;-80
2021/12/22 02:22:10;;;;;;;32.55;21.90;;;;;;;;;;6209338;23;20012;-80
2021/12/22 02:24:36;;;;;;;31.15;21.45;;;;;;;;;;6209245;23;20013;-80
2021/12/22 02:27:08;;;;;;;30.48;22.02;;;;;;;;;;6208694;23;20028;-80
2021/12/22 02:29:37;;;;;;;32.88;21.65;;;;;;;;;;6208739;23;20024;-81
2021/12/22 02:32:33;;;;;;;30.08;20.60;;;;;;;;;;6208818;23;20102;-81
2021/12/22 02:34:52;;;;;;;28.48;19.65;;;;;;;;;;6207030;23;20023;-80
2021/12/22 02:37:24;;;;;;;29.10;20.92;;;;;;;;;;6208561;23;20012;-81
2021/12/22 02:40:08;;;;;;;29.10;20.20;;;;;;;;;;6183755;23;20481;-80
2021/12/22 02:42:35;;;;;;;29.88;20.65;;;;;;;;;;6183814;23;20074;-80
2021/12/22 02:45:12;;;;;;;28.17;19.27;;;;;;;;;;6209597;23;20377;-80
2021/12/22 02:47:38;;;;;;;29.88;20.27;;;;;;;;;;6208735;23;20390;-81
2021/12/22 02:50:05;;;;;;;29.02;20.65;;;;;;;;;;6208486;23;20013;-80
2021/12/22 02:52:39;;;;;;;27.63;19.55;;;;;;;;;;6208957;23;20016;-81
2021/12/22 02:55:06;;;;;;;27.90;20.58;;;;;;;;;;6208823;23;20012;-81
2021/12/22 02:57:39;;;;;;;30.30;20.73;;;;;;;;;;6208607;23;20210;-81
2021/12/22 03:03:09;;;;;;;31.90;21.40;;;;;;;;;;6208516;23;20024;-80
2021/12/22 03:05:37;;;;;;;28.40;19.65;;;;;;;;;;6208593;23;20110;-81
2021/12/22 03:08:04;;;;;;;28.33;20.13;;;;;;;;;;6208452;23;20124;-80
2021/12/22 03:10:30;;;;;;;29.95;20.15;;;;;;;;;;6208506;23;20030;-81
2021/12/22 03:13:02;;;;;;;26.38;19.00;;;;;;;;;;6208800;23;20088;-81
2021/12/22 03:15:29;;;;;;;27.38;19.10;;;;;;;;;;6208531;23;20324;-80
2021/12/22 03:17:55;;;;;;;30.00;20.95;;;;;;;;;;6208278;23;20086;-80
2021/12/22 03:20:21;;;;;;;27.95;19.23;;;;;;;;;;6208443;23;20012;-80
2021/12/22 03:22:47;;;;;;;28.42;20.17;;;;;;;;;;6183361;23;20013;-80
2021/12/22 03:25:16;;;;;;;32.40;21.65;;;;;;;;;;6209006;23;20024;-80
2021/12/22 03:27:43;;;;;;;30.52;21.30;;;;;;;;;;6208636;23;20023;-80
2021/12/22 03:30:10;;;;;;;32.08;21.10;;;;;;;;;;6208263;23;20044;-80
2021/12/22 03:32:36;;;;;;;30.40;19.80;;;;;;;;;;6208260;23;20024;-80
2021/12/22 03:35:03;;;;;;;28.17;19.45;;;;;;;;;;6208290;23;20016;-80
2021/12/22 03:37:29;;;;;;;26.70;18.45;;;;;;;;;;6208258;23;20070;-80
2021/12/22 03:39:55;;;;;;;28.60;18.73;;;;;;;;;;6183217;23;20215;-80
2021/12/22 03:42:21;;;;;;;28.08;19.15;;;;;;;;;;6183275;23;20016;-80
2021/12/22 03:44:47;;;;;;;27.17;18.77;;;;;;;;;;6208230;23;20059;-80
2021/12/22 03:47:14;;;;;;;26.38;20.00;;;;;;;;;;6208361;23;20048;-80
2021/12/22 03:49:40;;;;;;;29.33;19.98;;;;;;;;;;6208114;23;20013;-80
2021/12/22 03:52:07;;;;;;;28.52;19.60;;;;;;;;;;6208165;23;20091;-81
2021/12/22 03:54:33;;;;;;;33.00;22.38;;;;;;;;;;6183230;23;20012;-80
2021/12/22 03:56:59;;;;;;;31.98;22.73;;;;;;;;;;6208180;23;20013;-80
2021/12/22 03:59:26;;;;;;;32.17;22.50;;;;;;;;;;6208241;23;20024;-80
2021/12/22 04:01:52;;;;;;;32.25;20.70;;;;;;;;;;6208127;23;20364;-80
2021/12/22 04:04:22;;;;;;;35.55;22.13;;;;;;;;;;6208571;23;20092;-80
2021/12/22 04:06:50;;;;;;;34.88;20.88;;;;;;;;;;6208429;23;20203;-80
2021/12/22 04:09:16;;;;;;;32.03;20.45;;;;;;;;;;6207942;23;20079;-80
2021/12/22 04:11:43;;;;;;;32.78;22.38;;;;;;;;;;6208041;23;20013;-80
2021/12/22 04:14:10;;;;;;;27.40;19.48;;;;;;;;;;6183539;23;20031;-80
2021/12/22 04:16:37;;;;;;;30.35;19.73;;;;;;;;;;6208041;23;20119;-81
2021/12/22 04:19:03;;;;;;;31.15;21.27;;;;;;;;;;6183032;23;20016;-80
2021/12/22 04:21:30;;;;;;;28.95;21.08;;;;;;;;;;6182966;23;20023;-80
2021/12/22 04:23:56;;;;;;;31.80;20.20;;;;;;;;;;6208277;23;20094;-80
2021/12/22 04:26:23;;;;;;;30.55;20.27;;;;;;;;;;6208022;23;20016;-80
2021/12/22 04:28:50;;;;;;;32.25;21.40;;;;;;;;;;6208466;23;20393;-81
2021/12/22 04:31:16;;;;;;;33.63;21.60;;;;;;;;;;6208307;23;20020;-80
2021/12/22 04:33:42;;;;;;;30.83;20.02;;;;;;;;;;6207963;23;20465;-80
2021/12/22 04:36:09;;;;;;;33.03;22.13;;;;;;;;;;6207871;23;20012;-80
2021/12/22 04:38:35;;;;;;;31.83;21.67;;;;;;;;;;6207818;23;20020;-80
2021/12/22 04:41:01;;;;;;;31.58;20.08;;;;;;;;;;6207918;23;20024;-80
2021/12/22 04:43:28;;;;;;;31.75;20.80;;;;;;;;;;6207772;23;20020;-80
2021/12/22 04:45:54;;;;;;;35.42;21.98;;;;;;;;;;6208016;23;20020;-80
2021/12/22 04:48:21;;;;;;;30.48;21.08;;;;;;;;;;6207724;23;20016;-80
2021/12/22 04:50:47;;;;;;;30.90;21.17;;;;;;;;;;6209774;23;20020;-81
2021/12/22 04:53:22;;;;;;;32.38;20.42;;;;;;;;;;6209796;23;20016;-81
2021/12/22 04:55:48;;;;;;;32.65;20.80;;;;;;;;;;6209791;23;20469;-81
2021/12/22 04:58:15;;;;;;;33.63;21.88;;;;;;;;;;6209792;23;20024;-81
2021/12/22 05:00:41;;;;;;;32.30;21.00;;;;;;;;;;6209761;23;20074;-81
2021/12/22 05:03:07;;;;;;;31.85;20.88;;;;;;;;;;6210085;23;20016;-81
2021/12/22 05:05:34;;;;;;;31.92;21.25;;;;;;;;;;6209807;23;20492;-81
2021/12/22 05:08:00;;;;;;;37.80;21.08;;;;;;;;;;6209844;23;20009;-81
2021/12/22 05:10:27;;;;;;;34.33;21.23;;;;;;;;;;6210161;23;20048;-81
2021/12/22 05:12:54;;;;;;;30.98;20.80;;;;;;;;;;6209679;23;20023;-81
2021/12/22 05:15:22;;;;;;;32.00;20.95;;;;;;;;;;6184876;23;20017;-81
2021/12/22 05:18:13;;;;;;;32.40;21.92;;;;;;;;;;6209505;23;20071;-81
2021/12/22 05:20:35;;;;;;;31.55;20.60;;;;;;;;;;6209541;23;20016;-81
2021/12/22 05:23:02;;;;;;;32.63;20.17;;;;;;;;;;6184811;23;20465;-81
2021/12/22 05:25:28;;;;;;;35.83;20.65;;;;;;;;;;6209705;23;20477;-81
2021/12/22 05:27:54;;;;;;;30.90;19.98;;;;;;;;;;6209438;23;20489;-81
2021/12/22 05:30:20;;;;;;;30.38;20.52;;;;;;;;;;6209507;23;20070;-81
2021/12/22 05:32:47;;;;;;;31.85;20.13;;;;;;;;;;6184357;23;20062;-81
2021/12/22 05:35:13;;;;;;;31.40;19.90;;;;;;;;;;6209453;23;20019;-81
2021/12/22 05:37:39;;;;;;;27.25;20.52;;;;;;;;;;6209172;23;20021;-81
2021/12/22 05:40:07;;;;;;;32.65;20.40;;;;;;;;;;6184305;23;20017;-81
2021/12/22 05:42:33;;;;;;;30.85;20.25;;;;;;;;;;6209261;23;20023;-81
2021/12/22 05:44:59;;;;;;;31.05;20.30;;;;;;;;;;6184317;23;20018;-81
2021/12/22 05:47:25;;;;;;;32.10;20.05;;;;;;;;;;6209329;23;20075;-81
2021/12/22 05:49:52;;;;;;;31.33;19.83;;;;;;;;;;6209598;23;20092;-81
2021/12/22 05:52:18;;;;;;;31.85;18.98;;;;;;;;;;6209301;23;20043;-81
2021/12/22 05:54:45;;;;;;;33.03;20.20;;;;;;;;;;6208750;23;20020;-81
2021/12/22 05:57:11;;;;;;;31.88;19.73;;;;;;;;;;6209148;23;20020;-81
2021/12/22 05:59:37;;;;;;;31.60;20.73;;;;;;;;;;6184143;23;20019;-81
2021/12/22 06:02:04;;;;;;;30.63;18.92;;;;;;;;;;6183625;23;20016;-81
2021/12/22 06:04:30;;;;;;;32.53;21.17;;;;;;;;;;6209473;23;20023;-81
2021/12/22 06:06:56;;;;;;;33.78;21.17;;;;;;;;;;6209066;23;20017;-81
2021/12/22 06:09:22;;;;;;;31.23;18.92;;;;;;;;;;6209100;23;20016;-81
2021/12/22 06:11:48;;;;;;;32.15;19.55;;;;;;;;;;6183429;23;20013;-81
2021/12/22 06:14:14;;;;;;;30.55;18.85;;;;;;;;;;6208353;23;20047;-81
2021/12/22 06:16:41;;;;;;;31.00;20.30;;;;;;;;;;6208384;23;20013;-81
2021/12/22 06:19:09;;;;;;;31.42;19.63;;;;;;;;;;6209118;23;20044;-81
2021/12/22 06:21:35;;;;;;;33.05;20.30;;;;;;;;;;6184226;23;20012;-81
2021/12/22 06:24:01;;;;;;;35.15;20.70;;;;;;;;;;6209099;23;20016;-81
2021/12/22 06:26:27;;;;;;;32.33;20.20;;;;;;;;;;6209585;23;20301;-81
2021/12/22 06:28:54;;;;;;;32.22;20.13;;;;;;;;;;6208773;23;20017;-81
2021/12/22 06:31:20;;;;;;;33.90;19.38;;;;;;;;;;6208918;23;20092;-81
2021/12/22 06:33:46;;;;;;;30.17;18.50;;;;;;;;;;6208946;23;20346;-81
2021/12/22 06:36:12;;;;;;;30.30;19.52;;;;;;;;;;6210977;23;20016;-81
2021/12/22 06:38:39;;;;;;;32.45;19.42;;;;;;;;;;6186258;23;20028;-81
2021/12/22 06:41:05;;;;;;;32.30;20.17;;;;;;;;;;6211426;23;20017;-81
2021/12/22 06:43:31;;;;;;;32.22;18.73;;;;;;;;;;6211725;23;20044;-81
2021/12/22 06:45:57;;;;;;;30.15;20.13;;;;;;;;;;6211322;23;20013;-81
2021/12/22 06:48:24;;;;;;;33.50;19.55;;;;;;;;;;6211150;23;20027;-81
2021/12/22 06:50:50;;;;;;;31.20;19.73;;;;;;;;;;6186220;23;20095;-81
2021/12/22 06:53:16;;;;;;;32.75;19.77;;;;;;;;;;6211287;23;20031;-81
2021/12/22 06:55:42;;;;;;;34.28;19.77;;;;;;;;;;6211485;23;20012;-81
2021/12/22 06:58:08;;;;;;;30.35;19.15;;;;;;;;;;6211349;23;20023;-80
2021/12/22 07:00:36;;;;;;;34.35;20.13;;;;;;;;;;6211365;23;20446;-81
2021/12/22 07:03:04;;;;;;;31.05;18.50;;;;;;;;;;6211296;23;20013;-81
2021/12/22 07:05:31;;;;;;;32.80;19.42;;;;;;;;;;6185886;23;20012;-81
2021/12/22 07:07:57;;;;;;;35.50;20.23;;;;;;;;;;6211237;23;20054;-81
2021/12/22 07:10:23;;;;;;;33.13;19.08;;;;;;;;;;6183878;23;20016;-80
2021/12/22 07:12:49;;;;;;;34.65;20.20;;;;;;;;;;6208251;23;20008;-79
2021/12/22 07:15:17;;;;;;;31.48;19.67;;;;;;;;;;6208208;23;20277;-81
2021/12/22 07:17:43;;;;;;;32.72;19.17;;;;;;;;;;6208329;23;20478;-81
2021/12/22 07:20:10;;;;;;;30.38;18.85;;;;;;;;;;6182898;23;20027;-80
2021/12/22 07:22:36;;;;;;;32.38;19.00;;;;;;;;;;6208028;23;20013;-81
2021/12/22 07:25:04;;;;;;;33.03;19.98;;;;;;;;;;6208076;23;20095;-81
2021/12/22 07:27:30;;;;;;;35.97;20.55;;;;;;;;;;6208334;23;20036;-80
2021/12/22 07:29:57;;;;;;;32.17;18.92;;;;;;;;;;6182936;23;20672;-81
2021/12/22 07:32:23;;;;;;;28.65;18.60;;;;;;;;;;6207645;23;20451;-80
2021/12/22 07:34:52;;;;;;;32.58;18.80;;;;;;;;;;6207840;23;20454;-80
2021/12/22 07:37:32;;;;;;;31.52;19.60;;;;;;;;;;6207465;23;20023;-80
2021/12/22 07:39:58;;;;;;;31.95;17.52;;;;;;;;;;6208121;23;20427;-81
2021/12/22 07:42:24;;;;;;;30.27;19.13;;;;;;;;;;6183315;23;20024;-81
2021/12/22 07:44:50;;;;;;;32.53;19.33;;;;;;;;;;6208246;23;20016;-81
2021/12/22 07:47:16;;;;;;;33.78;19.00;;;;;;;;;;6208740;23;20024;-79
2021/12/22 07:49:43;;;;;;;33.47;19.85;;;;;;;;;;6207986;23;20017;-79
2021/12/22 07:52:09;;;;;;;31.02;19.55;;;;;;;;;;6208103;23;20066;-79
2021/12/22 07:54:35;;;;;;;29.70;18.25;;;;;;;;;;6207737;23;20122;-79
2021/12/22 07:57:01;;;;;;;35.20;19.45;;;;;;;;;;6184451;23;20025;-79
2021/12/22 07:59:27;;;;;;;30.50;18.85;;;;;;;;;;6209816;23;20095;-79
2021/12/22 08:01:53;;;;;;;34.42;19.08;;;;;;;;;;6207452;23;20020;-79
2021/12/22 08:04:19;;;;;;;33.15;19.73;;;;;;;;;;6209605;23;20019;-79
2021/12/22 08:06:46;;;;;;;36.03;19.85;;;;;;;;;;6209855;23;20103;-79
2021/12/22 08:09:12;;;;;;;34.80;19.75;;;;;;;;;;6209877;23;20485;-79
2021/12/22 08:11:38;;;;;;;29.40;19.85;;;;;;;;;;6209478;23;20366;-79
2021/12/22 08:14:04;;;;;;;36.47;20.67;;;;;;;;;;6210542;23;20462;-80
2021/12/22 08:16:30;;;;;;;33.63;20.35;;;;;;;;;;6210138;23;20062;-81
2021/12/22 08:18:56;;;;;;;31.63;20.15;;;;;;;;;;6210173;23;20036;-81
2021/12/22 08:21:26;;;;;;;35.00;19.33;;;;;;;;;;6209794;23;20021;-81
2021/12/22 08:23:52;;;;;;;32.85;18.58;;;;;;;;;;6210287;23;20020;-81
2021/12/22 08:26:18;;;;;;;33.85;19.83;;;;;;;;;;6212201;23;20048;-79
2021/12/22 08:28:48;;;;;;;31.55;19.10;;;;;;;;;;6209995;23;20051;-78
2021/12/22 08:31:15;;;;;;;31.65;19.42;;;;;;;;;;6184524;23;20031;-78
2021/12/22 08:33:45;;;;;;;36.13;20.33;;;;;;;;;;6209696;23;20012;-78
2021/12/22 08:39:00;;;;;;;32.58;19.77;;;;;;;;;;6209398;23;20048;-79
2021/12/22 08:41:28;;;;;;;36.65;20.88;;;;;;;;;;6209033;23;20279;-79
2021/12/22 08:43:55;;;;;;;33.13;20.08;;;;;;;;;;6209271;23;20091;-79
2021/12/22 08:46:21;;;;;;;34.13;19.98;;;;;;;;;;6209836;23;20017;-78
2021/12/22 08:48:48;;;;;;;36.22;21.35;;;;;;;;;;6208968;23;20017;-78
2021/12/22 08:51:14;;;;;;;34.40;19.45;;;;;;;;;;6209107;23;20268;-78
2021/12/22 08:53:40;;;;;;;37.53;21.30;;;;;;;;;;6209145;23;20012;-78
2021/12/22 08:56:07;;;;;;;35.38;20.70;;;;;;;;;;6208992;23;20239;-78
2021/12/22 08:58:33;;;;;;;35.50;21.75;;;;;;;;;;6209170;23;20327;-78
2021/12/22 09:00:59;;;;;;;38.03;21.30;;;;;;;;;;6209103;23;20018;-78
2021/12/22 09:03:25;;;;;;;37.00;21.15;;;;;;;;;;6209015;23;20017;-78
2021/12/22 09:05:52;;;;;;;32.92;19.98;;;;;;;;;;6208234;23;20087;-78
2021/12/22 09:08:18;;;;;;;33.55;20.13;;;;;;;;;;6208717;23;20020;-78
2021/12/22 09:10:44;;;;;;;31.35;19.63;;;;;;;;;;6208999;23;20027;-79
2021/12/22 09:13:12;;;;;;;33.65;20.13;;;;;;;;;;6210037;23;20012;-79
2021/12/22 09:15:39;;;;;;;36.42;21.08;;;;;;;;;;6209558;23;20044;-78
2021/12/22 09:18:05;;;;;;;34.42;21.05;;;;;;;;;;6208592;23;20071;-79
2021/12/22 09:20:31;;;;;;;33.35;20.13;;;;;;;;;;6208787;23;20146;-79
2021/12/22 09:22:58;;;;;;;34.55;20.63;;;;;;;;;;6183491;23;20023;-79
2021/12/22 09:25:24;;;;;;;40.28;20.73;;;;;;;;;;6208973;23;20143;-79
2021/12/22 09:27:50;;;;;;;32.13;20.60;;;;;;;;;;6208546;23;20016;-79
2021/12/22 09:30:17;;;;;;;36.35;23.33;;;;;;;;;;6209987;23;20381;-79
2021/12/22 09:32:43;;;;;;;37.00;21.63;;;;;;;;;;6209351;23;20020;-79
2021/12/22 09:35:09;;;;;;;33.47;21.40;;;;;;;;;;6209285;23;20397;-79
2021/12/22 09:37:36;;;;;;;33.85;20.02;;;;;;;;;;6209021;23;20063;-79
2021/12/22 09:40:03;;;;;;;36.97;20.95;;;;;;;;;;6209749;23;20493;-79
2021/12/22 09:42:30;;;;;;;37.83;21.55;;;;;;;;;;6183918;23;20020;-79
2021/12/22 09:44:59;;;;;;;35.58;21.55;;;;;;;;;;6209657;23;20342;-78
2021/12/22 09:47:30;;;;;;;34.80;21.30;;;;;;;;;;6208955;23;20461;-79
2021/12/22 09:50:23;;;;;;;33.80;20.77;;;;;;;;;;6208916;23;20092;-79
2021/12/22 09:52:45;;;;;;;34.67;20.25;;;;;;;;;;6207879;23;20349;-79
2021/12/22 09:55:11;;;;;;;35.45;21.10;;;;;;;;;;6208783;23;20016;-79
2021/12/22 09:57:38;;;;;;;33.05;20.52;;;;;;;;;;6209112;23;20024;-79
2021/12/22 10:00:05;;;;;;;33.63;21.30;;;;;;;;;;6209113;23;20524;-79
2021/12/22 10:02:31;;;;;;;35.13;21.83;;;;;;;;;;6209088;23;20071;-79
2021/12/22 10:04:58;;;;;;;33.20;20.35;;;;;;;;;;6208896;23;20027;-79
2021/12/22 10:07:30;;;;;;;32.92;21.08;;;;;;;;;;6209481;23;20027;-79
2021/12/22 10:10:02;;;;;;;30.10;20.08;;;;;;;;;;6208696;23;20012;-79
2021/12/22 10:12:29;;;;;;;30.45;19.58;;;;;;;;;;6208793;23;20019;-79
2021/12/22 10:15:03;;;;;;;32.38;20.58;;;;;;;;;;6208611;23;20552;-79
2021/12/22 10:17:41;;;;;;;32.60;20.67;;;;;;;;;;6208716;23;20012;-79
2021/12/22 10:20:12;;;;;;;32.45;21.25;;;;;;;;;;6208529;23;20450;-79
2021/12/22 10:22:43;;;;;;;33.70;21.98;;;;;;;;;;6208510;23;20417;-79
2021/12/22 10:25:31;;;;;;;34.45;21.20;;;;;;;;;;6208614;23;20087;-79
2021/12/22 10:28:06;;;;;;;33.00;20.95;;;;;;;;;;6208523;23;20017;-79
2021/12/22 10:30:35;;;;;;;28.73;20.45;;;;;;;;;;6208567;23;20477;-79
2021/12/22 10:33:07;;;;;;;29.75;20.13;;;;;;;;;;6208175;23;20051;-79
2021/12/22 10:35:34;;;;;;;30.58;18.63;;;;;;;;;;6209070;23;20027;-79
2021/12/22 10:38:01;;;;;;;31.23;21.00;;;;;;;;;;6208773;23;20020;-79
2021/12/22 10:40:41;;;;;;;33.05;21.58;;;;;;;;;;6209262;23;20063;-79
2021/12/22 10:43:09;;;;;;;29.63;19.08;;;;;;;;;;6208701;23;20021;-79
2021/12/22 10:45:36;;;;;;;30.98;20.27;;;;;;;;;;6207745;23;20023;-79
2021/12/22 10:50:52;;;;;;;28.13;19.85;;;;;;;;;;6208529;23;20061;-79
2021/12/22 10:53:18;;;;;;;29.10;21.50;;;;;;;;;;6208723;23;20016;-79
2021/12/22 10:55:46;;;;;;;25.75;18.52;;;;;;;;;;6208766;23;20142;-79
2021/12/22 10:58:29;;;;;;;29.27;19.88;;;;;;;;;;6208449;23;20346;-79
2021/12/22 11:01:10;;;;;;;27.15;18.88;;;;;;;;;;6208622;23;20460;-79
2021/12/22 11:03:40;;;;;;;33.03;21.25;;;;;;;;;;6208646;23;20483;-79
2021/12/22 11:06:29;;;;;;;31.30;19.52;;;;;;;;;;6208783;23;20341;-79
2021/12/22 11:09:15;;;;;;;30.35;19.52;;;;;;;;;;6208413;23;20256;-79
2021/12/22 11:11:41;;;;;;;27.02;17.73;;;;;;;;;;6208514;23;20584;-79
2021/12/22 11:14:12;;;;;;;29.83;19.80;;;;;;;;;;6208473;23;20020;-79
2021/12/22 11:16:51;;;;;;;27.60;18.90;;;;;;;;;;6208758;23;20080;-79
2021/12/22 11:19:17;;;;;;;28.10;19.88;;;;;;;;;;6208732;23;20020;-79
2021/12/22 11:21:53;;;;;;;28.35;18.23;;;;;;;;;;6208320;23;20107;-79
2021/12/22 11:24:19;;;;;;;29.73;18.88;;;;;;;;;;6208366;23;20017;-79
2021/12/22 11:26:46;;;;;;;28.30;19.40;;;;;;;;;;6208160;23;20022;-79
2021/12/22 11:29:13;;;;;;;27.02;18.25;;;;;;;;;;6208202;23;20087;-79
2021/12/22 11:31:39;;;;;;;29.42;17.38;;;;;;;;;;6208262;23;20016;-79
2021/12/22 11:34:05;;;;;;;24.63;17.23;;;;;;;;;;6208064;23;20082;-79
2021/12/22 11:36:32;;;;;;;23.52;15.82;;;;;;;;;;6208191;23;20324;-79
2021/12/22 11:38:58;;;;;;;25.05;17.50;;;;;;;;;;6208099;23;20335;-79
2021/12/22 11:41:27;;;;;;;25.20;17.52;;;;;;;;;;6208068;23;20023;-79
2021/12/22 11:43:54;;;;;;;27.35;18.33;;;;;;;;;;6208183;23;20013;-79
2021/12/22 11:46:21;;;;;;;24.58;17.55;;;;;;;;;;6208261;23;20016;-79
2021/12/22 11:48:48;;;;;;;24.88;17.70;;;;;;;;;;6207949;23;20019;-80
2021/12/22 11:51:34;;;;;;;26.20;17.23;;;;;;;;;;6208242;23;20016;-79
2021/12/22 11:54:06;;;;;;;24.67;16.88;;;;;;;;;;6209002;23;20013;-79
2021/12/22 11:56:38;;;;;;;25.15;15.20;;;;;;;;;;6208203;23;20062;-80
2021/12/22 11:59:04;;;;;;;26.45;17.15;;;;;;;;;;6208380;23;20028;-80
2021/12/22 12:01:30;;;;;;;27.73;16.65;;;;;;;;;;6208100;23;20021;-80
2021/12/22 12:04:13;;;;;;;26.42;17.65;;;;;;;;;;6208646;23;20052;-80
2021/12/22 12:06:52;;;;;;;24.50;16.58;;;;;;;;;;6208508;23;20025;-80
2021/12/22 12:09:24;;;;;;;25.88;16.63;;;;;;;;;;6208100;23;20381;-80
2021/12/22 12:11:56;;;;;;;24.88;16.85;;;;;;;;;;6208012;23;20012;-80
2021/12/22 12:23:14;;;;;;;25.65;16.85;;;;;;;;;;6208051;23;20119;-80
2021/12/22 12:25:40;;;;;;;;;;;;;;;;;;6208563;23;20095;-80
2021/12/22 12:28:17;;;;;;;23.40;15.95;;;;;;;;;;6208404;23;19923;-80
2021/12/22 12:30:48;;;;;;;25.48;16.75;;;;;;;;;;6183067;23;20021;-80
2021/12/22 12:33:23;;;;;;;25.25;16.60;;;;;;;;;;6208272;23;20094;-80
2021/12/22 12:35:51;;;;;;;23.58;17.10;;;;;;;;;;6207997;23;20108;-80
2021/12/22 12:38:17;;;;;;;27.05;16.60;;;;;;;;;;6207760;23;20095;-80
2021/12/22 12:40:57;;;;;;;23.98;16.60;;;;;;;;;;6207937;23;20098;-80
2021/12/22 12:43:44;;;;;;;22.05;15.85;;;;;;;;;;6208013;23;20023;-80
2021/12/22 12:49:04;;;;;;;27.35;17.23;;;;;;;;;;6207876;23;20351;-79
2021/12/22 12:51:33;;;;;;;25.25;17.13;;;;;;;;;;6208282;23;20021;-79
2021/12/22 12:54:01;;;;;;;26.75;16.95;;;;;;;;;;6182857;23;20366;-80
2021/12/22 12:56:33;;;;;;;29.33;17.35;;;;;;;;;;6207774;23;20019;-80
2021/12/22 12:59:00;;;;;;;23.70;15.63;;;;;;;;;;6207780;23;20070;-80
2021/12/22 13:01:52;;;;;;;21.95;15.90;;;;;;;;;;6208212;23;20055;-80
2021/12/22 13:04:32;;;;;;;22.85;16.38;;;;;;;;;;6197722;23;20338;-80
2021/12/22 13:07:15;;;;;;;24.45;15.90;;;;;;;;;;6207935;23;20012;-80
2021/12/22 13:09:41;;;;;;;24.38;16.90;;;;;;;;;;6207930;23;20013;-80
2021/12/22 13:17:59;;;;;;;23.23;16.30;;;;;;;;;;6202230;23;20013;-80
2021/12/22 13:20:28;;;;;;;21.73;16.17;;;;;;;;;;6209974;23;20591;-80
2021/12/22 13:22:55;;;;;;;22.95;15.55;;;;;;;;;;6209672;23;20021;-80
2021/12/22 13:25:28;;;;;;;24.48;16.58;;;;;;;;;;6209553;23;20350;-80
2021/12/22 13:27:55;;;;;;;25.02;16.75;;;;;;;;;;6209486;23;20635;-80
2021/12/22 13:30:23;;;;;;;24.65;17.15;;;;;;;;;;6209390;23;20070;-80
2021/12/22 13:33:00;;;;;;;25.42;17.40;;;;;;;;;;6209806;23;20013;-80
2021/12/22 13:35:46;;;;;;;23.33;16.30;;;;;;;;;;6209552;23;20342;-80
2021/12/22 13:38:16;;;;;;;28.52;17.55;;;;;;;;;;6209334;23;20021;-80
2021/12/22 13:40:54;;;;;;;26.08;18.08;;;;;;;;;;6209869;23;20055;-81
2021/12/22 13:43:20;;;;;;;26.88;18.63;;;;;;;;;;6209515;23;20319;-80
2021/12/22 13:45:47;;;;;;;26.13;17.30;;;;;;;;;;6184447;23;20476;-81
2021/12/22 13:48:18;;;;;;;27.92;18.35;;;;;;;;;;6209384;23;20012;-80
2021/12/22 13:50:44;;;;;;;25.48;17.60;;;;;;;;;;6209516;23;20067;-81
2021/12/22 13:53:11;;;;;;;26.85;16.77;;;;;;;;;;6209170;23;20012;-80
2021/12/22 13:55:37;;;;;;;24.75;17.25;;;;;;;;;;6209279;23;20016;-80
2021/12/22 13:58:22;;;;;;;27.08;18.52;;;;;;;;;;6209433;23;20052;-80
2021/12/22 14:00:48;;;;;;;25.70;17.48;;;;;;;;;;6209175;23;20012;-80
2021/12/22 14:03:18;;;;;;;25.35;16.67;;;;;;;;;;6209124;23;20354;-81
2021/12/22 14:06:03;;;;;;;25.17;17.73;;;;;;;;;;6209381;23;20021;-80
2021/12/22 14:08:29;;;;;;;24.83;17.20;;;;;;;;;;6209063;23;20394;-80
2021/12/22 14:10:55;;;;;;;27.83;19.02;;;;;;;;;;6208468;23;20074;-81
2021/12/22 14:13:28;;;;;;;25.10;17.98;;;;;;;;;;6184400;23;20655;-81
2021/12/22 14:15:54;;;;;;;24.80;16.00;;;;;;;;;;6207979;23;20012;-81
2021/12/22 14:18:21;;;;;;;23.02;16.25;;;;;;;;;;6209008;23;20012;-81
2021/12/22 14:20:47;;;;;;;23.55;16.75;;;;;;;;;;6208875;23;20016;-80
2021/12/22 14:23:13;;;;;;;26.52;16.95;;;;;;;;;;6183773;23;20017;-81
2021/12/22 14:25:40;;;;;;;26.17;16.38;;;;;;;;;;6209010;23;20459;-80
2021/12/22 14:28:20;;;;;;;25.08;17.75;;;;;;;;;;6208746;23;20020;-80
2021/12/22 14:30:46;;;;;;;24.65;16.30;;;;;;;;;;6208950;23;20013;-81
2021/12/22 14:33:12;;;;;;;23.13;15.75;;;;;;;;;;6209404;23;20087;-80
2021/12/22 14:35:40;;;;;;;25.27;16.17;;;;;;;;;;6208817;23;20108;-80
2021/12/22 14:38:15;;;;;;;27.05;16.33;;;;;;;;;;6208579;23;20449;-80
2021/12/22 14:40:50;;;;;;;25.63;16.13;;;;;;;;;;6208748;23;20016;-80
2021/12/22 14:43:16;;;;;;;24.88;16.30;;;;;;;;;;6208718;23;20017;-80
2021/12/22 14:45:47;;;;;;;26.38;16.85;;;;;;;;;;6208836;23;20099;-81
2021/12/22 14:48:20;;;;;;;25.48;17.27;;;;;;;;;;6208751;23;20024;-80
2021/12/22 14:50:58;;;;;;;25.10;16.95;;;;;;;;;;6208687;23;20071;-80
2021/12/22 14:53:29;;;;;;;26.45;17.77;;;;;;;;;;6208666;23;20024;-80
2021/12/22 14:55:57;;;;;;;24.60;17.05;;;;;;;;;;6208629;23;20016;-80
2021/12/22 14:58:23;;;;;;;25.08;16.42;;;;;;;;;;6209257;23;20012;-81